sensor_id;sensor_type;location;lat;lon;timestamp;temperature;humidity
11836;DHT22;5977;51.972;7.640;2022-08-26T00:01:51;24.50;75.30
11836;DHT22;5977;51.972;7.640;2022-08-26T00:04:22;24.50;75.60
11836;DHT22;5977;51.972;7.640;2022-08-26T00:06:51;24.40;75.60
11836;DHT22;5977;51.972;7.640;2022-08-26T00:09:19;24.30;75.90
11836;DHT22;5977;51.972;7.640;2022-08-26T00:11:50;24.30;76.30
11836;DHT22;5977;51.972;7.640;2022-08-26T00:14:18;24.50;75.90
11836;DHT22;5977;51.972;7.640;2022-08-26T00:16:46;24.50;75.70
11836;DHT22;5977;51.972;7.640;2022-08-26T00:19:15;24.50;75.40
11836;DHT22;5977;51.972;7.640;2022-08-26T00:21:46;24.40;75.60
11836;DHT22;5977;51.972;7.640;2022-08-26T00:24:15;24.30;76.00
11836;DHT22;5977;51.972;7.640;2022-08-26T00:26:44;24.20;76.70
11836;DHT22;5977;51.972;7.640;2022-08-26T00:29:12;24.20;77.10
11836;DHT22;5977;51.972;7.640;2022-08-26T00:31:40;24.20;77.20
11836;DHT22;5977;51.972;7.640;2022-08-26T00:34:11;24.20;77.40
11836;DHT22;5977;51.972;7.640;2022-08-26T00:36:39;24.40;77.10
11836;DHT22;5977;51.972;7.640;2022-08-26T00:39:10;24.50;76.80
11836;DHT22;5977;51.972;7.640;2022-08-26T00:41:39;24.20;77.60
11836;DHT22;5977;51.972;7.640;2022-08-26T00:44:07;24.30;77.60
11836;DHT22;5977;51.972;7.640;2022-08-26T00:46:41;24.50;77.30
11836;DHT22;5977;51.972;7.640;2022-08-26T00:49:16;24.50;76.80
11836;DHT22;5977;51.972;7.640;2022-08-26T00:51:49;24.50;77.10
11836;DHT22;5977;51.972;7.640;2022-08-26T00:54:23;24.30;77.30
11836;DHT22;5977;51.972;7.640;2022-08-26T00:56:56;24.00;78.10
11836;DHT22;5977;51.972;7.640;2022-08-26T00:59:26;23.80;78.90
11836;DHT22;5977;51.972;7.640;2022-08-26T01:01:58;23.90;79.40
11836;DHT22;5977;51.972;7.640;2022-08-26T01:04:30;24.00;79.10
11836;DHT22;5977;51.972;7.640;2022-08-26T01:06:59;24.10;78.80
11836;DHT22;5977;51.972;7.640;2022-08-26T01:09:30;24.20;78.50
11836;DHT22;5977;51.972;7.640;2022-08-26T01:12:01;24.10;78.90
11836;DHT22;5977;51.972;7.640;2022-08-26T01:14:31;23.90;79.00
11836;DHT22;5977;51.972;7.640;2022-08-26T01:17:04;24.00;79.60
11836;DHT22;5977;51.972;7.640;2022-08-26T01:19:39;23.90;79.70
11836;DHT22;5977;51.972;7.640;2022-08-26T01:22:11;23.80;80.70
11836;DHT22;5977;51.972;7.640;2022-08-26T01:24:42;23.60;81.60
11836;DHT22;5977;51.972;7.640;2022-08-26T01:27:12;23.70;81.80
11836;DHT22;5977;51.972;7.640;2022-08-26T01:29:42;23.60;81.90
11836;DHT22;5977;51.972;7.640;2022-08-26T01:32:14;23.80;82.20
11836;DHT22;5977;51.972;7.640;2022-08-26T01:34:45;23.80;81.10
11836;DHT22;5977;51.972;7.640;2022-08-26T01:37:16;23.70;82.20
11836;DHT22;5977;51.972;7.640;2022-08-26T01:39:48;23.90;81.50
11836;DHT22;5977;51.972;7.640;2022-08-26T01:42:19;24.20;79.40
11836;DHT22;5977;51.972;7.640;2022-08-26T01:44:52;24.00;79.60
11836;DHT22;5977;51.972;7.640;2022-08-26T01:47:24;23.70;80.60
11836;DHT22;5977;51.972;7.640;2022-08-26T01:49:56;23.80;80.90
11836;DHT22;5977;51.972;7.640;2022-08-26T01:52:27;23.80;80.90
11836;DHT22;5977;51.972;7.640;2022-08-26T01:54:58;23.80;80.60
11836;DHT22;5977;51.972;7.640;2022-08-26T01:57:27;23.80;80.60
11836;DHT22;5977;51.972;7.640;2022-08-26T01:59:57;23.90;80.70
11836;DHT22;5977;51.972;7.640;2022-08-26T02:02:27;23.90;80.10
11836;DHT22;5977;51.972;7.640;2022-08-26T02:04:58;23.90;80.30
11836;DHT22;5977;51.972;7.640;2022-08-26T02:07:27;23.90;79.50
11836;DHT22;5977;51.972;7.640;2022-08-26T02:09:55;23.90;80.00
11836;DHT22;5977;51.972;7.640;2022-08-26T02:12:24;23.40;81.40
11836;DHT22;5977;51.972;7.640;2022-08-26T02:14:54;22.90;84.80
11836;DHT22;5977;51.972;7.640;2022-08-26T02:17:29;23.00;86.80
11836;DHT22;5977;51.972;7.640;2022-08-26T02:20:00;23.10;86.10
11836;DHT22;5977;51.972;7.640;2022-08-26T02:22:30;23.30;85.00
11836;DHT22;5977;51.972;7.640;2022-08-26T02:25:00;23.40;83.50
11836;DHT22;5977;51.972;7.640;2022-08-26T02:27:32;23.60;83.10
11836;DHT22;5977;51.972;7.640;2022-08-26T02:30:06;23.40;83.30
11836;DHT22;5977;51.972;7.640;2022-08-26T02:32:36;23.00;85.80
11836;DHT22;5977;51.972;7.640;2022-08-26T02:35:07;22.60;87.80
11836;DHT22;5977;51.972;7.640;2022-08-26T02:37:35;22.70;89.00
11836;DHT22;5977;51.972;7.640;2022-08-26T02:40:05;23.00;88.30
11836;DHT22;5977;51.972;7.640;2022-08-26T02:42:34;23.10;87.20
11836;DHT22;5977;51.972;7.640;2022-08-26T02:45:03;23.20;86.40
11836;DHT22;5977;51.972;7.640;2022-08-26T02:47:33;23.20;86.60
11836;DHT22;5977;51.972;7.640;2022-08-26T02:50:01;22.90;87.90
11836;DHT22;5977;51.972;7.640;2022-08-26T02:52:29;22.80;90.00
11836;DHT22;5977;51.972;7.640;2022-08-26T02:54:58;22.80;89.50
11836;DHT22;5977;51.972;7.640;2022-08-26T02:57:26;23.00;88.70
11836;DHT22;5977;51.972;7.640;2022-08-26T02:59:55;23.10;88.30
11836;DHT22;5977;51.972;7.640;2022-08-26T03:02:25;22.80;90.10
11836;DHT22;5977;51.972;7.640;2022-08-26T03:04:53;22.90;90.20
11836;DHT22;5977;51.972;7.640;2022-08-26T03:07:26;23.00;89.50
11836;DHT22;5977;51.972;7.640;2022-08-26T03:09:54;23.20;88.70
11836;DHT22;5977;51.972;7.640;2022-08-26T03:12:23;23.10;88.10
11836;DHT22;5977;51.972;7.640;2022-08-26T03:14:51;23.10;88.50
11836;DHT22;5977;51.972;7.640;2022-08-26T03:17:20;23.00;89.20
11836;DHT22;5977;51.972;7.640;2022-08-26T03:19:48;23.00;88.90
11836;DHT22;5977;51.972;7.640;2022-08-26T03:22:23;23.10;88.80
11836;DHT22;5977;51.972;7.640;2022-08-26T03:24:53;23.00;88.70
11836;DHT22;5977;51.972;7.640;2022-08-26T03:27:20;23.00;89.60
11836;DHT22;5977;51.972;7.640;2022-08-26T03:29:48;23.30;87.60
11836;DHT22;5977;51.972;7.640;2022-08-26T03:32:38;22.80;89.90
11836;DHT22;5977;51.972;7.640;2022-08-26T03:35:07;22.80;90.50
11836;DHT22;5977;51.972;7.640;2022-08-26T03:37:35;23.00;90.20
11836;DHT22;5977;51.972;7.640;2022-08-26T03:40:05;22.90;90.00
11836;DHT22;5977;51.972;7.640;2022-08-26T03:42:34;22.80;90.20
11836;DHT22;5977;51.972;7.640;2022-08-26T03:45:05;22.80;90.70
11836;DHT22;5977;51.972;7.640;2022-08-26T03:47:34;22.80;90.60
11836;DHT22;5977;51.972;7.640;2022-08-26T03:50:06;22.80;90.30
11836;DHT22;5977;51.972;7.640;2022-08-26T03:52:35;22.90;89.80
11836;DHT22;5977;51.972;7.640;2022-08-26T03:55:10;23.00;89.20
11836;DHT22;5977;51.972;7.640;2022-08-26T03:57:37;23.00;88.80
11836;DHT22;5977;51.972;7.640;2022-08-26T04:00:10;22.70;90.00
11836;DHT22;5977;51.972;7.640;2022-08-26T04:02:39;22.80;90.50
11836;DHT22;5977;51.972;7.640;2022-08-26T04:05:13;23.00;89.40
11836;DHT22;5977;51.972;7.640;2022-08-26T04:07:41;23.10;88.50
11836;DHT22;5977;51.972;7.640;2022-08-26T04:10:11;23.00;89.20
11836;DHT22;5977;51.972;7.640;2022-08-26T04:12:40;22.80;90.40
11836;DHT22;5977;51.972;7.640;2022-08-26T04:15:11;23.10;90.20
11836;DHT22;5977;51.972;7.640;2022-08-26T04:17:40;23.00;90.00
11836;DHT22;5977;51.972;7.640;2022-08-26T04:20:09;22.70;91.10
11836;DHT22;5977;51.972;7.640;2022-08-26T04:22:43;22.50;92.00
11836;DHT22;5977;51.972;7.640;2022-08-26T04:25:11;22.50;92.20
11836;DHT22;5977;51.972;7.640;2022-08-26T04:27:39;22.60;92.20
11836;DHT22;5977;51.972;7.640;2022-08-26T04:30:08;22.40;93.40
11836;DHT22;5977;51.972;7.640;2022-08-26T04:32:37;22.60;92.90
11836;DHT22;5977;51.972;7.640;2022-08-26T04:35:07;22.50;93.20
11836;DHT22;5977;51.972;7.640;2022-08-26T04:37:36;22.30;94.30
11836;DHT22;5977;51.972;7.640;2022-08-26T04:40:06;22.30;94.80
11836;DHT22;5977;51.972;7.640;2022-08-26T04:42:35;22.30;95.20
11836;DHT22;5977;51.972;7.640;2022-08-26T04:45:04;22.50;94.90
11836;DHT22;5977;51.972;7.640;2022-08-26T04:47:36;22.40;95.40
11836;DHT22;5977;51.972;7.640;2022-08-26T04:50:05;22.30;96.20
11836;DHT22;5977;51.972;7.640;2022-08-26T04:52:33;22.40;96.50
11836;DHT22;5977;51.972;7.640;2022-08-26T04:55:02;22.30;97.80
11836;DHT22;5977;51.972;7.640;2022-08-26T04:57:35;22.50;97.30
11836;DHT22;5977;51.972;7.640;2022-08-26T05:00:06;22.30;97.80
11836;DHT22;5977;51.972;7.640;2022-08-26T05:02:34;22.40;97.60
11836;DHT22;5977;51.972;7.640;2022-08-26T05:05:03;22.40;97.70
11836;DHT22;5977;51.972;7.640;2022-08-26T05:07:32;22.80;96.60
11836;DHT22;5977;51.972;7.640;2022-08-26T05:10:02;22.50;97.90
11836;DHT22;5977;51.972;7.640;2022-08-26T05:12:35;22.60;97.90
11836;DHT22;5977;51.972;7.640;2022-08-26T05:15:04;22.70;97.60
11836;DHT22;5977;51.972;7.640;2022-08-26T05:17:33;22.80;97.50
11836;DHT22;5977;51.972;7.640;2022-08-26T05:20:02;22.70;97.80
11836;DHT22;5977;51.972;7.640;2022-08-26T05:22:30;22.50;99.80
11836;DHT22;5977;51.972;7.640;2022-08-26T05:24:58;22.70;98.90
11836;DHT22;5977;51.972;7.640;2022-08-26T05:27:26;22.60;99.80
11836;DHT22;5977;51.972;7.640;2022-08-26T05:29:57;22.70;99.90
11836;DHT22;5977;51.972;7.640;2022-08-26T05:32:26;23.00;99.10
11836;DHT22;5977;51.972;7.640;2022-08-26T05:34:55;22.80;99.50
11836;DHT22;5977;51.972;7.640;2022-08-26T05:37:24;23.00;99.40
11836;DHT22;5977;51.972;7.640;2022-08-26T05:39:52;23.00;99.30
11836;DHT22;5977;51.972;7.640;2022-08-26T05:42:20;22.80;99.90
11836;DHT22;5977;51.972;7.640;2022-08-26T05:44:51;22.80;99.90
11836;DHT22;5977;51.972;7.640;2022-08-26T05:47:23;22.70;99.90
11836;DHT22;5977;51.972;7.640;2022-08-26T05:49:51;22.60;99.90
11836;DHT22;5977;51.972;7.640;2022-08-26T05:52:20;22.70;99.90
11836;DHT22;5977;51.972;7.640;2022-08-26T05:54:51;22.80;99.90
11836;DHT22;5977;51.972;7.640;2022-08-26T05:57:19;22.60;99.90
11836;DHT22;5977;51.972;7.640;2022-08-26T05:59:49;22.60;99.90
11836;DHT22;5977;51.972;7.640;2022-08-26T06:02:17;22.50;99.90
11836;DHT22;5977;51.972;7.640;2022-08-26T06:04:46;22.70;99.90
11836;DHT22;5977;51.972;7.640;2022-08-26T06:07:14;22.70;99.90
11836;DHT22;5977;51.972;7.640;2022-08-26T06:09:44;22.80;99.90
11836;DHT22;5977;51.972;7.640;2022-08-26T06:12:11;22.70;99.90
11836;DHT22;5977;51.972;7.640;2022-08-26T06:14:40;23.00;99.90
11836;DHT22;5977;51.972;7.640;2022-08-26T06:17:08;23.40;99.90
11836;DHT22;5977;51.972;7.640;2022-08-26T06:19:38;23.40;99.90
11836;DHT22;5977;51.972;7.640;2022-08-26T06:22:08;23.40;99.90
11836;DHT22;5977;51.972;7.640;2022-08-26T06:24:51;23.10;99.90
11836;DHT22;5977;51.972;7.640;2022-08-26T06:27:40;23.30;99.90
11836;DHT22;5977;51.972;7.640;2022-08-26T06:31:09;23.20;99.90
11836;DHT22;5977;51.972;7.640;2022-08-26T06:33:37;23.00;99.90
11836;DHT22;5977;51.972;7.640;2022-08-26T06:36:05;23.10;99.90
11836;DHT22;5977;51.972;7.640;2022-08-26T06:38:37;22.90;99.90
11836;DHT22;5977;51.972;7.640;2022-08-26T06:41:36;23.30;99.90
11836;DHT22;5977;51.972;7.640;2022-08-26T06:44:33;23.40;99.90
11836;DHT22;5977;51.972;7.640;2022-08-26T06:47:01;23.30;99.90
11836;DHT22;5977;51.972;7.640;2022-08-26T06:49:29;23.50;99.90
11836;DHT22;5977;51.972;7.640;2022-08-26T06:51:56;23.10;99.90
11836;DHT22;5977;51.972;7.640;2022-08-26T06:54:26;22.90;99.90
11836;DHT22;5977;51.972;7.640;2022-08-26T06:56:55;22.90;99.90
11836;DHT22;5977;51.972;7.640;2022-08-26T06:59:24;22.90;99.90
11836;DHT22;5977;51.972;7.640;2022-08-26T07:01:53;22.50;99.90
11836;DHT22;5977;51.972;7.640;2022-08-26T07:04:21;22.70;99.90
11836;DHT22;5977;51.972;7.640;2022-08-26T07:06:54;23.20;99.90
11836;DHT22;5977;51.972;7.640;2022-08-26T07:09:24;22.80;99.90
11836;DHT22;5977;51.972;7.640;2022-08-26T07:11:54;22.90;99.90
11836;DHT22;5977;51.972;7.640;2022-08-26T07:14:23;22.70;99.90
11836;DHT22;5977;51.972;7.640;2022-08-26T07:16:53;23.10;99.90
11836;DHT22;5977;51.972;7.640;2022-08-26T07:19:22;23.40;99.90
11836;DHT22;5977;51.972;7.640;2022-08-26T07:21:57;23.40;99.90
11836;DHT22;5977;51.972;7.640;2022-08-26T07:24:25;23.70;99.90
11836;DHT22;5977;51.972;7.640;2022-08-26T07:26:59;23.80;99.90
11836;DHT22;5977;51.972;7.640;2022-08-26T07:29:28;24.10;99.90
11836;DHT22;5977;51.972;7.640;2022-08-26T07:31:57;24.20;99.90
11836;DHT22;5977;51.972;7.640;2022-08-26T07:34:25;24.10;99.90
11836;DHT22;5977;51.972;7.640;2022-08-26T07:36:53;23.70;99.90
11836;DHT22;5977;51.972;7.640;2022-08-26T07:39:23;23.40;99.90
11836;DHT22;5977;51.972;7.640;2022-08-26T07:41:52;23.00;99.90
11836;DHT22;5977;51.972;7.640;2022-08-26T07:44:22;23.50;99.90
11836;DHT22;5977;51.972;7.640;2022-08-26T07:46:52;23.60;99.90
11836;DHT22;5977;51.972;7.640;2022-08-26T07:49:21;23.60;99.90
11836;DHT22;5977;51.972;7.640;2022-08-26T07:51:49;23.50;99.90
11836;DHT22;5977;51.972;7.640;2022-08-26T07:54:17;23.80;99.90
11836;DHT22;5977;51.972;7.640;2022-08-26T07:56:47;23.70;99.90
11836;DHT22;5977;51.972;7.640;2022-08-26T07:59:18;24.10;99.90
11836;DHT22;5977;51.972;7.640;2022-08-26T08:01:50;24.60;99.90
11836;DHT22;5977;51.972;7.640;2022-08-26T08:04:18;24.90;99.90
11836;DHT22;5977;51.972;7.640;2022-08-26T08:06:52;24.70;99.90
11836;DHT22;5977;51.972;7.640;2022-08-26T08:09:20;24.60;99.90
11836;DHT22;5977;51.972;7.640;2022-08-26T08:11:48;24.70;99.90
11836;DHT22;5977;51.972;7.640;2022-08-26T08:14:17;24.70;99.90
11836;DHT22;5977;51.972;7.640;2022-08-26T08:16:50;24.60;99.90
11836;DHT22;5977;51.972;7.640;2022-08-26T08:19:20;24.60;99.90
11836;DHT22;5977;51.972;7.640;2022-08-26T08:21:49;24.60;99.90
11836;DHT22;5977;51.972;7.640;2022-08-26T08:24:18;24.40;99.90
11836;DHT22;5977;51.972;7.640;2022-08-26T08:26:46;24.30;99.90
11836;DHT22;5977;51.972;7.640;2022-08-26T08:29:14;24.10;99.90
11836;DHT22;5977;51.972;7.640;2022-08-26T08:31:41;24.10;99.90
11836;DHT22;5977;51.972;7.640;2022-08-26T08:34:27;24.00;99.90
11836;DHT22;5977;51.972;7.640;2022-08-26T08:36:56;24.20;99.90
11836;DHT22;5977;51.972;7.640;2022-08-26T08:39:25;24.50;99.90
11836;DHT22;5977;51.972;7.640;2022-08-26T08:44:57;24.10;99.90
11836;DHT22;5977;51.972;7.640;2022-08-26T08:47:31;24.10;99.90
11836;DHT22;5977;51.972;7.640;2022-08-26T08:50:09;24.40;99.90
11836;DHT22;5977;51.972;7.640;2022-08-26T08:52:40;24.20;99.90
11836;DHT22;5977;51.972;7.640;2022-08-26T08:55:13;24.00;99.90
11836;DHT22;5977;51.972;7.640;2022-08-26T08:57:52;24.10;99.90
11836;DHT22;5977;51.972;7.640;2022-08-26T09:00:31;24.20;99.90
11836;DHT22;5977;51.972;7.640;2022-08-26T09:03:10;24.20;99.90
11836;DHT22;5977;51.972;7.640;2022-08-26T09:05:45;24.30;99.90
11836;DHT22;5977;51.972;7.640;2022-08-26T09:08:20;24.40;99.90
11836;DHT22;5977;51.972;7.640;2022-08-26T09:10:52;24.60;99.90
11836;DHT22;5977;51.972;7.640;2022-08-26T09:13:20;24.20;99.90
11836;DHT22;5977;51.972;7.640;2022-08-26T09:16:00;24.10;99.90
11836;DHT22;5977;51.972;7.640;2022-08-26T09:18:39;24.30;99.90
11836;DHT22;5977;51.972;7.640;2022-08-26T09:21:15;24.20;99.90
11836;DHT22;5977;51.972;7.640;2022-08-26T09:23:44;24.10;99.90
11836;DHT22;5977;51.972;7.640;2022-08-26T09:26:18;24.20;99.90
11836;DHT22;5977;51.972;7.640;2022-08-26T09:28:55;24.20;99.90
11836;DHT22;5977;51.972;7.640;2022-08-26T09:31:24;24.30;99.90
11836;DHT22;5977;51.972;7.640;2022-08-26T09:34:05;24.10;99.90
11836;DHT22;5977;51.972;7.640;2022-08-26T09:36:37;24.40;99.90
11836;DHT22;5977;51.972;7.640;2022-08-26T09:39:25;24.80;99.90
11836;DHT22;5977;51.972;7.640;2022-08-26T09:42:06;24.80;99.90
11836;DHT22;5977;51.972;7.640;2022-08-26T09:44:51;24.60;99.90
11836;DHT22;5977;51.972;7.640;2022-08-26T09:47:25;24.50;99.90
11836;DHT22;5977;51.972;7.640;2022-08-26T09:49:59;24.30;99.90
11836;DHT22;5977;51.972;7.640;2022-08-26T09:52:36;24.00;99.90
11836;DHT22;5977;51.972;7.640;2022-08-26T09:55:12;24.20;99.90
11836;DHT22;5977;51.972;7.640;2022-08-26T09:57:46;24.30;99.90
11836;DHT22;5977;51.972;7.640;2022-08-26T10:00:32;23.90;99.90
11836;DHT22;5977;51.972;7.640;2022-08-26T10:03:06;24.10;99.90
11836;DHT22;5977;51.972;7.640;2022-08-26T10:05:42;24.50;99.90
11836;DHT22;5977;51.972;7.640;2022-08-26T10:08:20;24.50;99.90
11836;DHT22;5977;51.972;7.640;2022-08-26T10:10:49;24.20;99.90
11836;DHT22;5977;51.972;7.640;2022-08-26T10:13:24;24.50;99.90
11836;DHT22;5977;51.972;7.640;2022-08-26T10:15:59;24.80;99.90
11836;DHT22;5977;51.972;7.640;2022-08-26T10:18:32;25.10;99.90
11836;DHT22;5977;51.972;7.640;2022-08-26T10:21:06;25.30;99.80
11836;DHT22;5977;51.972;7.640;2022-08-26T10:23:40;25.20;99.90
11836;DHT22;5977;51.972;7.640;2022-08-26T10:26:14;25.30;99.90
11836;DHT22;5977;51.972;7.640;2022-08-26T10:28:48;25.30;99.90
11836;DHT22;5977;51.972;7.640;2022-08-26T10:31:23;25.20;99.90
11836;DHT22;5977;51.972;7.640;2022-08-26T10:33:54;25.30;99.90
11836;DHT22;5977;51.972;7.640;2022-08-26T10:36:29;25.40;99.40
11836;DHT22;5977;51.972;7.640;2022-08-26T10:39:42;25.40;99.80
11836;DHT22;5977;51.972;7.640;2022-08-26T10:42:17;25.60;98.50
11836;DHT22;5977;51.972;7.640;2022-08-26T10:44:48;25.40;97.50
11836;DHT22;5977;51.972;7.640;2022-08-26T10:47:21;25.40;96.80
11836;DHT22;5977;51.972;7.640;2022-08-26T10:49:52;25.40;96.30
11836;DHT22;5977;51.972;7.640;2022-08-26T10:52:36;25.20;96.90
11836;DHT22;5977;51.972;7.640;2022-08-26T10:55:15;25.00;98.20
11836;DHT22;5977;51.972;7.640;2022-08-26T10:57:48;25.00;98.90
11836;DHT22;5977;51.972;7.640;2022-08-26T11:00:21;25.10;98.20
11836;DHT22;5977;51.972;7.640;2022-08-26T11:03:15;25.30;99.10
11836;DHT22;5977;51.972;7.640;2022-08-26T11:06:14;25.40;98.60
11836;DHT22;5977;51.972;7.640;2022-08-26T11:08:45;25.40;97.90
11836;DHT22;5977;51.972;7.640;2022-08-26T11:11:40;25.60;99.90
11836;DHT22;5977;51.972;7.640;2022-08-26T11:14:34;25.60;97.60
11836;DHT22;5977;51.972;7.640;2022-08-26T11:17:54;25.50;98.20
11836;DHT22;5977;51.972;7.640;2022-08-26T11:20:34;25.40;97.60
11836;DHT22;5977;51.972;7.640;2022-08-26T11:23:35;25.30;97.20
11836;DHT22;5977;51.972;7.640;2022-08-26T11:26:13;25.30;96.60
11836;DHT22;5977;51.972;7.640;2022-08-26T11:29:03;25.40;96.40
11836;DHT22;5977;51.972;7.640;2022-08-26T11:31:53;25.60;97.90
11836;DHT22;5977;51.972;7.640;2022-08-26T11:34:49;25.60;97.30
11836;DHT22;5977;51.972;7.640;2022-08-26T11:37:18;25.70;96.50
11836;DHT22;5977;51.972;7.640;2022-08-26T11:39:51;25.80;96.80
11836;DHT22;5977;51.972;7.640;2022-08-26T11:42:29;25.80;96.00
11836;DHT22;5977;51.972;7.640;2022-08-26T11:45:02;25.80;96.40
11836;DHT22;5977;51.972;7.640;2022-08-26T11:47:39;25.70;96.40
11836;DHT22;5977;51.972;7.640;2022-08-26T11:50:10;25.60;96.70
11836;DHT22;5977;51.972;7.640;2022-08-26T11:52:38;25.70;96.50
11836;DHT22;5977;51.972;7.640;2022-08-26T11:55:09;25.80;94.50
11836;DHT22;5977;51.972;7.640;2022-08-26T11:57:42;25.80;94.90
11836;DHT22;5977;51.972;7.640;2022-08-26T12:00:19;26.00;94.20
11836;DHT22;5977;51.972;7.640;2022-08-26T12:02:49;25.90;92.90
11836;DHT22;5977;51.972;7.640;2022-08-26T12:05:23;26.00;93.00
11836;DHT22;5977;51.972;7.640;2022-08-26T12:07:58;26.10;92.60
11836;DHT22;5977;51.972;7.640;2022-08-26T12:10:30;26.10;91.60
11836;DHT22;5977;51.972;7.640;2022-08-26T12:13:00;26.20;91.70
11836;DHT22;5977;51.972;7.640;2022-08-26T12:15:31;26.20;91.30
11836;DHT22;5977;51.972;7.640;2022-08-26T12:18:17;26.30;91.40
11836;DHT22;5977;51.972;7.640;2022-08-26T12:20:57;26.30;90.70
11836;DHT22;5977;51.972;7.640;2022-08-26T12:23:34;26.20;91.10
11836;DHT22;5977;51.972;7.640;2022-08-26T12:26:07;26.30;90.70
11836;DHT22;5977;51.972;7.640;2022-08-26T12:28:42;26.40;90.60
11836;DHT22;5977;51.972;7.640;2022-08-26T12:31:20;26.30;91.20
11836;DHT22;5977;51.972;7.640;2022-08-26T12:33:49;26.30;92.40
11836;DHT22;5977;51.972;7.640;2022-08-26T12:36:22;26.30;92.20
11836;DHT22;5977;51.972;7.640;2022-08-26T12:38:51;26.50;92.60
11836;DHT22;5977;51.972;7.640;2022-08-26T12:41:45;26.60;93.00
11836;DHT22;5977;51.972;7.640;2022-08-26T12:44:35;26.80;91.00
11836;DHT22;5977;51.972;7.640;2022-08-26T12:47:08;26.80;90.00
11836;DHT22;5977;51.972;7.640;2022-08-26T12:49:38;26.60;89.70
11836;DHT22;5977;51.972;7.640;2022-08-26T12:52:19;26.60;90.30
11836;DHT22;5977;51.972;7.640;2022-08-26T12:54:57;26.70;91.20
11836;DHT22;5977;51.972;7.640;2022-08-26T12:57:27;26.80;90.50
11836;DHT22;5977;51.972;7.640;2022-08-26T13:00:22;26.90;91.70
11836;DHT22;5977;51.972;7.640;2022-08-26T13:02:56;26.90;89.90
11836;DHT22;5977;51.972;7.640;2022-08-26T13:05:26;26.90;89.80
11836;DHT22;5977;51.972;7.640;2022-08-26T13:08:25;26.90;89.50
11836;DHT22;5977;51.972;7.640;2022-08-26T13:11:02;26.90;87.90
11836;DHT22;5977;51.972;7.640;2022-08-26T13:13:30;26.80;87.50
11836;DHT22;5977;51.972;7.640;2022-08-26T13:15:59;26.70;87.60
11836;DHT22;5977;51.972;7.640;2022-08-26T13:18:29;26.80;89.60
11836;DHT22;5977;51.972;7.640;2022-08-26T13:20:57;26.70;88.50
11836;DHT22;5977;51.972;7.640;2022-08-26T13:23:25;26.60;89.70
11836;DHT22;5977;51.972;7.640;2022-08-26T13:25:53;26.80;90.50
11836;DHT22;5977;51.972;7.640;2022-08-26T13:28:21;26.90;89.20
11836;DHT22;5977;51.972;7.640;2022-08-26T13:30:49;27.00;88.50
11836;DHT22;5977;51.972;7.640;2022-08-26T13:33:17;27.10;88.30
11836;DHT22;5977;51.972;7.640;2022-08-26T13:35:48;27.20;86.60
11836;DHT22;5977;51.972;7.640;2022-08-26T13:38:16;27.10;86.40
11836;DHT22;5977;51.972;7.640;2022-08-26T13:40:59;27.00;86.60
11836;DHT22;5977;51.972;7.640;2022-08-26T13:43:28;26.90;86.50
11836;DHT22;5977;51.972;7.640;2022-08-26T13:45:56;26.80;88.30
11836;DHT22;5977;51.972;7.640;2022-08-26T13:48:24;27.00;89.10
11836;DHT22;5977;51.972;7.640;2022-08-26T13:50:53;26.80;88.60
11836;DHT22;5977;51.972;7.640;2022-08-26T13:53:22;26.90;90.70
11836;DHT22;5977;51.972;7.640;2022-08-26T13:55:50;26.90;90.00
11836;DHT22;5977;51.972;7.640;2022-08-26T13:58:18;26.80;89.30
11836;DHT22;5977;51.972;7.640;2022-08-26T14:00:46;26.80;90.10
11836;DHT22;5977;51.972;7.640;2022-08-26T14:03:14;26.70;90.40
11836;DHT22;5977;51.972;7.640;2022-08-26T14:05:42;26.60;90.40
11836;DHT22;5977;51.972;7.640;2022-08-26T14:08:11;26.60;91.30
11836;DHT22;5977;51.972;7.640;2022-08-26T14:10:39;26.50;90.70
11836;DHT22;5977;51.972;7.640;2022-08-26T14:13:07;26.60;90.30
11836;DHT22;5977;51.972;7.640;2022-08-26T14:15:36;26.50;91.10
11836;DHT22;5977;51.972;7.640;2022-08-26T14:18:06;26.50;90.50
11836;DHT22;5977;51.972;7.640;2022-08-26T14:20:36;26.60;90.70
11836;DHT22;5977;51.972;7.640;2022-08-26T14:23:04;26.60;90.40
11836;DHT22;5977;51.972;7.640;2022-08-26T14:25:41;26.60;90.30
11836;DHT22;5977;51.972;7.640;2022-08-26T14:28:09;26.50;90.00
11836;DHT22;5977;51.972;7.640;2022-08-26T14:30:39;26.60;90.30
11836;DHT22;5977;51.972;7.640;2022-08-26T14:33:09;26.60;89.90
11836;DHT22;5977;51.972;7.640;2022-08-26T14:35:38;26.50;90.20
11836;DHT22;5977;51.972;7.640;2022-08-26T14:38:14;26.40;90.20
11836;DHT22;5977;51.972;7.640;2022-08-26T14:40:44;26.20;91.00
11836;DHT22;5977;51.972;7.640;2022-08-26T14:43:12;26.20;91.00
11836;DHT22;5977;51.972;7.640;2022-08-26T14:45:43;26.30;90.90
11836;DHT22;5977;51.972;7.640;2022-08-26T14:48:11;26.30;90.00
11836;DHT22;5977;51.972;7.640;2022-08-26T14:50:39;26.30;90.30
11836;DHT22;5977;51.972;7.640;2022-08-26T14:53:07;26.50;90.40
11836;DHT22;5977;51.972;7.640;2022-08-26T14:55:54;26.40;89.60
11836;DHT22;5977;51.972;7.640;2022-08-26T14:58:22;26.40;89.10
11836;DHT22;5977;51.972;7.640;2022-08-26T15:00:49;26.10;90.00
11836;DHT22;5977;51.972;7.640;2022-08-26T15:03:17;26.30;90.10
11836;DHT22;5977;51.972;7.640;2022-08-26T15:05:45;26.40;89.40
11836;DHT22;5977;51.972;7.640;2022-08-26T15:08:14;26.30;88.50
11836;DHT22;5977;51.972;7.640;2022-08-26T15:10:42;26.40;89.40
11836;DHT22;5977;51.972;7.640;2022-08-26T15:13:11;26.50;88.50
11836;DHT22;5977;51.972;7.640;2022-08-26T15:15:39;26.40;88.90
11836;DHT22;5977;51.972;7.640;2022-08-26T15:18:07;26.30;89.00
11836;DHT22;5977;51.972;7.640;2022-08-26T15:20:36;26.30;88.70
11836;DHT22;5977;51.972;7.640;2022-08-26T15:23:04;26.20;88.70
11836;DHT22;5977;51.972;7.640;2022-08-26T15:25:36;26.10;88.80
11836;DHT22;5977;51.972;7.640;2022-08-26T15:28:04;26.10;89.00
11836;DHT22;5977;51.972;7.640;2022-08-26T15:30:33;26.00;89.80
11836;DHT22;5977;51.972;7.640;2022-08-26T15:33:01;26.30;90.20
11836;DHT22;5977;51.972;7.640;2022-08-26T15:35:29;26.40;88.90
11836;DHT22;5977;51.972;7.640;2022-08-26T15:38:04;26.40;88.10
11836;DHT22;5977;51.972;7.640;2022-08-26T15:40:32;26.40;87.40
11836;DHT22;5977;51.972;7.640;2022-08-26T15:43:00;26.30;88.20
11836;DHT22;5977;51.972;7.640;2022-08-26T15:45:51;26.20;88.10
11836;DHT22;5977;51.972;7.640;2022-08-26T15:48:19;26.30;88.10
11836;DHT22;5977;51.972;7.640;2022-08-26T15:50:50;26.10;87.30
11836;DHT22;5977;51.972;7.640;2022-08-26T15:53:19;25.90;88.50
11836;DHT22;5977;51.972;7.640;2022-08-26T15:55:48;25.80;89.60
11836;DHT22;5977;51.972;7.640;2022-08-26T15:58:17;25.80;90.00
11836;DHT22;5977;51.972;7.640;2022-08-26T16:00:45;25.80;89.30
11836;DHT22;5977;51.972;7.640;2022-08-26T16:03:14;25.80;90.00
11836;DHT22;5977;51.972;7.640;2022-08-26T16:05:43;25.80;89.20
11836;DHT22;5977;51.972;7.640;2022-08-26T16:08:12;25.80;89.40
11836;DHT22;5977;51.972;7.640;2022-08-26T16:10:42;25.90;89.80
11836;DHT22;5977;51.972;7.640;2022-08-26T16:13:17;25.70;89.40
11836;DHT22;5977;51.972;7.640;2022-08-26T16:15:46;25.70;90.10
11836;DHT22;5977;51.972;7.640;2022-08-26T16:18:15;25.60;90.30
11836;DHT22;5977;51.972;7.640;2022-08-26T16:20:50;25.60;90.40